METAR Analyzer

一覧表示

Hello, Guest. (Login)

RJOA/HIJ  -  広島

観測日時
2020-10-25 13:00 (UTC) (61分前)
気温
12
露点
9
湿数
3
相対湿度
81.9%
QNH
1019.0hPa
推定現地気圧
979.7hPa
推定海面気圧
1019.1hPa
体感温度
6.5
(無風時)
14.3
HI
11.4
気温前日比
+2
体感温度前日比
-1.7
HI前日比
+2.6
水平視程
>10000m
鉛直視程
データなし
雲底高度
No dense clouds
V/I
VMC (VFR)
RVR
No RVR data
卓越風
3kt from 300° (240° ~ 360°)
ガスト
No gust
降水
報告なし
その他の天気
報告なし
報告なし

RJOA 251300Z 30003KT 240V360 CAVOK 12/09 Q1018 RMK A3009

RJOB/OKJ  -  岡山

観測日時
2020-10-25 12:00 (UTC) (121分前)
気温
11
露点
8
湿数
3
相対湿度
81.7%
QNH
1017.9hPa
推定現地気圧
989.4hPa
推定海面気圧
1018.1hPa
体感温度
4.1
(無風時)
13.5
HI
10.3
気温前日比
+2
体感温度前日比
+2
HI前日比
+2.5
水平視程
>10000m
鉛直視程
データなし
雲底高度
No dense clouds
V/I
VMC (VFR)
RVR
No RVR data
卓越風
4kt from 310°
ガスト
No gust
降水
報告なし
その他の天気
報告なし
報告なし

RJOB 251200Z 31004KT CAVOK 11/08 Q1017 RMK A3006

RJOR/TTJ  -  鳥取

観測日時
2020-10-25 12:00 (UTC) (121分前)
気温
13
露点
9
湿数
4
相対湿度
76.6%
QNH
1017.9hPa
推定現地気圧
1016.1hPa
推定海面気圧
1017.9hPa
体感温度
6.6
(無風時)
15.1
HI
12.4
気温前日比
-1
体感温度前日比
+0.6
HI前日比
-0.5
水平視程
>10000m
鉛直視程
データなし
雲底高度
No dense clouds
V/I
VMC (VFR)
RVR
No RVR data
卓越風
4kt from 150° (120° ~ 190°)
ガスト
No gust
降水
報告なし
その他の天気
報告なし
少しの(1/8) 層積雲 @ 4000ft AGL / 散在する雲 @ 不明な高さ

RJOR 251200Z 15004KT 120V190 9999 FEW040 SCT/// 13/09 Q1018 RMK 1SC040 A3006

RJOH/YGJ  -  米子(美保基地)

観測日時
2020-10-25 13:00 (UTC) (61分前)
気温
12
露点
10
湿数
2
相対湿度
87.6%
QNH
1018.6hPa
推定現地気圧
1018.1hPa
推定海面気圧
1018.6hPa
体感温度
2.9
(無風時)
14.4
HI
11.5
気温前日比
-2
体感温度前日比
-2.7
HI前日比
-1.2
水平視程
>10000m
鉛直視程
データなし
雲底高度
Unknown
V/I
判定不可
RVR
No RVR data
卓越風
7kt from 190°
ガスト
No gust
降水
報告なし
その他の天気
報告なし
少しの(1/8) 積雲 @ 3000ft AGL / 散在する(3/8) 層積雲 @ 4000ft AGL / 隙間のある雲 @ 不明な高さ

RJOH 251300Z 19007KT 9999 FEW030 SCT040 BKN/// 12/10 Q1018 RMK 1CU030 3SC040 A3008

RJDC/UBJ  -  山口宇部

観測日時
2020-10-25 12:00 (UTC) (121分前)
気温
14
露点
9
湿数
5
相対湿度
71.8%
QNH
1018.3hPa
推定現地気圧
1017.7hPa
推定海面気圧
1018.3hPa
体感温度
7.8
(無風時)
15.8
HI
13.3
気温前日比
±0
体感温度前日比
+0.7
HI前日比
+0.3
水平視程
>10000m
鉛直視程
データなし
雲底高度
No dense clouds
V/I
VMC (VFR)
RVR
No RVR data
卓越風
4kt from 350° (320° ~ 30°)
ガスト
No gust
降水
報告なし
その他の天気
報告なし
報告なし

RJDC 251200Z 35004KT 320V030 CAVOK 14/09 Q1018 RMK A3007

RJOI/IWK  -  岩国空港(岩国基地)

観測日時
2020-10-25 12:55 (UTC) (66分前)
気温
14.4
露点
8.9
湿数
5.5
相対湿度
69.5%
QNH
1018.3hPa
推定現地気圧
1017.9hPa
推定海面気圧
1018.3hPa
体感温度
7.5
(無風時)
16.1
HI
13.7
気温前日比
+2.7
体感温度前日比
+3.9
HI前日比
+3
水平視程
>10000m
鉛直視程
データなし
雲底高度
23000ft AGL
V/I
VMC (VFR)
RVR
No RVR data
卓越風
5kt from 300°
ガスト
No gust
降水
報告なし
その他の天気
報告なし
少しの雲 @ 3000ft AGL / 隙間のある雲 @ 23000ft AGL

RJOI 251255Z 30005KT 9999 FEW030 BKN230 14/09 A3007 RMK SLP182 T01440089

RJOF  -  防府北基地

観測日時
2020-10-25 13:00 (UTC) (61分前)
気温
12
露点
10
湿数
2
相対湿度
87.6%
QNH
1018.3hPa
推定現地気圧
1018.1hPa
推定海面気圧
1018.3hPa
体感温度
2.9
(無風時)
14.4
HI
11.5
気温前日比
+3
体感温度前日比
+1.1
HI前日比
+3.4
水平視程
>10000m
鉛直視程
データなし
雲底高度
Unknown
V/I
判定不可
RVR
No RVR data
卓越風
7kt from 30°
ガスト
No gust
降水
報告なし
その他の天気
報告なし
少しの(1/8) 層積雲 @ 4000ft AGL / 散在する(3/8) 高積雲 @ 18000ft AGL / 隙間のある雲 @ 不明な高さ

RJOF 251300Z 03007KT 9999 FEW040 SCT180 BKN/// 12/10 Q1018 RMK 1SC040 3AC180 A3007

RJOZ  -  小月航空基地

観測日時
2020-10-25 13:00 (UTC) (61分前)
気温
13
露点
9
湿数
4
相対湿度
76.6%
QNH
1018.6hPa
推定現地気圧
1018.1hPa
推定海面気圧
1018.6hPa
体感温度
3.4
(無風時)
15.1
HI
12.4
気温前日比
-1
体感温度前日比
-3.7
HI前日比
-0.5
水平視程
>10000m
鉛直視程
データなし
雲底高度
Unknown
V/I
判定不可
RVR
No RVR data
卓越風
9kt from 340°
ガスト
No gust
降水
報告なし
その他の天気
報告なし
少しの(1/8) 積雲 @ 3000ft AGL / 隙間のある雲 @ 不明な高さ

RJOZ 251300Z 34009KT 9999 FEW030 BKN/// 13/09 Q1018 RMK 1CU030 A3008

RJOT/TAK  -  高松

観測日時
2020-10-25 12:00 (UTC) (121分前)
気温
11
露点
9
湿数
2
相対湿度
87.5%
QNH
1018.3hPa
推定現地気圧
996.2hPa
推定海面気圧
1018.5hPa
体感温度
2.2
(無風時)
13.5
HI
10.4
気温前日比
±0
体感温度前日比
±0
HI前日比
+0.5
水平視程
>10000m
鉛直視程
データなし
雲底高度
No dense clouds
V/I
VMC (VFR)
RVR
No RVR data
卓越風
6kt from 160°
ガスト
No gust
降水
報告なし
その他の天気
報告なし
報告なし

RJOT 251200Z 16006KT CAVOK 11/09 Q1018 RMK A3007

RJOM/MYJ  -  松山

観測日時
2020-10-25 12:00 (UTC) (121分前)
気温
15
露点
10
湿数
5
相対湿度
72%
QNH
1017.9hPa
推定現地気圧
1017.4hPa
推定海面気圧
1017.9hPa
体感温度
6.5
(無風時)
16.6
HI
14.4
気温前日比
±0
体感温度前日比
+1.4
HI前日比
+0.4
水平視程
>10000m
鉛直視程
データなし
雲底高度
No dense clouds
V/I
VMC (VFR)
RVR
No RVR data
卓越風
8kt from 130° (100° ~ 170°)
ガスト
No gust
降水
報告なし
その他の天気
報告なし
報告なし

RJOM 251200Z 13008KT 100V170 CAVOK 15/10 Q1018 RMK A3006

RJOS/TKS  -  徳島

観測日時
2020-10-25 13:00 (UTC) (61分前)
気温
13
露点
9
湿数
4
相対湿度
76.6%
QNH
1018.3hPa
推定現地気圧
1017.0hPa
推定海面気圧
1018.3hPa
体感温度
3.9
(無風時)
15.1
HI
12.4
気温前日比
-2
体感温度前日比
-2.1
HI前日比
-1.5
水平視程
>10000m
鉛直視程
データなし
雲底高度
No dense clouds
V/I
VMC (VFR)
RVR
No RVR data
卓越風
8kt from 300°
ガスト
No gust
降水
報告なし
その他の天気
報告なし
少しの(1/8) 積雲 @ 3000ft AGL / 散在する雲 @ 不明な高さ

RJOS 251300Z 30008KT 9999 FEW030 SCT/// 13/09 Q1018 RMK 1CU030 A3007

RJOP  -  小松島航空基地

観測日時
2020-10-25 13:00 (UTC) (61分前)
気温
14
露点
9
湿数
5
相対湿度
71.8%
QNH
1018.3hPa
推定現地気圧
1017.9hPa
推定海面気圧
1018.3hPa
体感温度
7.8
(無風時)
15.8
HI
13.3
気温前日比
-1
体感温度前日比
+2.9
HI前日比
-0.6
水平視程
>10000m
鉛直視程
データなし
雲底高度
No dense clouds
V/I
VMC (VFR)
RVR
No RVR data
卓越風
4kt from 230° (170° ~ 280°)
ガスト
No gust
降水
報告なし
その他の天気
報告なし
少しの(1/8) 積雲 @ 3000ft AGL / 散在する雲 @ 24000ft AGL

RJOP 251300Z 23004KT 170V280 9999 FEW030 SCT240 14/09 Q1018 RMK 1CU030 A3007

8.8msec